Time;durP1;ratioP1;P1;durP2;ratioP2;P2;SDS_P1;SDS_P2;PMS_P1;PMS_P2;Temp;Humidity;BMP_temperature;BMP_pressure;BME280_temperature;BME280_humidity;BME280_pressure;Samples;Min_cycle;Max_cycle;Signal;HPM_P1;HPM_P2
2024/03/19 00:00:28;;;;;;;;;;;;;;;15.40;72.46;100781.03;5084762;28;19920;-83
2024/03/19 00:03:21;;;;;;;;;;;;;;;15.38;72.74;100780.59;5084609;28;19917;-83
2024/03/19 00:06:15;;;;;;;;;;;;;;;15.43;72.78;100781.50;5093232;28;19916;-83
2024/03/19 00:09:07;;;;;;;;;;;;;;;15.44;72.78;100777.63;5090958;28;20404;-82
2024/03/19 00:11:59;;;;;;;;;;;;;;;15.51;72.49;100781.41;5102573;28;20388;-83
2024/03/19 00:14:49;;;;;;;;;;;;;;;15.50;72.24;100784.44;5087826;28;19916;-83
2024/03/19 00:17:41;;;;;;;;;;;;;;;15.49;72.06;100780.91;5078726;28;19920;-83
2024/03/19 00:20:33;;;;;;;;;;;;;;;15.44;71.88;100780.38;5092967;28;19916;-83
2024/03/19 00:23:25;;;;;;;;;;;;;;;15.45;72.03;100779.19;5093124;28;20373;-83
2024/03/19 00:26:17;;;;;;;;;;;;;;;15.35;71.73;100775.81;5085120;28;20301;-83
2024/03/19 00:29:07;;;;;;;;;;;;;;;15.28;71.81;100769.31;5084106;28;19920;-84
2024/03/19 00:31:58;;;;;;;;;;;;;;;15.23;71.62;100777.78;5100448;28;19920;-83
2024/03/19 00:34:53;;;;;;;;;;;;;;;15.28;71.45;100770.13;5099497;28;19915;-82
2024/03/19 00:37:45;;;;;;;;;;;;;;;15.33;71.32;100771.81;5087972;28;20289;-82
2024/03/19 00:40:35;;;;;;;;;;;;;;;15.15;71.69;100765.78;5095903;28;19916;-83
2024/03/19 00:43:27;;;;;;;;;;;;;;;15.12;71.90;100765.69;5082088;28;19916;-81
2024/03/19 00:46:19;;;;;;;;;;;;;;;15.11;71.80;100766.81;5076386;28;20392;-83
2024/03/19 00:49:11;;;;;;;;;;;;;;;15.05;71.76;100770.94;5072816;28;19920;-83
2024/03/19 00:52:03;;;;;;;;;;;;;;;14.96;71.85;100774.59;5082955;28;19916;-82
2024/03/19 00:54:55;;;;;;;;;;;;;;;14.99;72.01;100770.38;5081532;28;20627;-83
2024/03/19 00:57:47;;;;;;;;;;;;;;;15.02;72.01;100763.41;5087986;28;19916;-83
2024/03/19 01:00:40;;;;;;;;;;;;;;;14.97;71.97;100770.72;5095988;28;19915;-83
2024/03/19 01:03:32;;;;;;;;;;;;;;;14.88;72.15;100766.50;5073779;28;19916;-82
2024/03/19 01:06:25;;;;;;;;;;;;;;;14.84;72.27;100765.56;5096479;28;20377;-83
2024/03/19 01:09:17;;;;;;;;;;;;;;;14.81;72.01;100763.53;5087771;28;20297;-82
2024/03/19 01:12:08;;;;;;;;;;;;;;;14.74;72.33;100760.56;5082831;28;19922;-81
2024/03/19 01:15:01;;;;;;;;;;;;;;;14.74;71.85;100755.88;5083254;28;19916;-81
2024/03/19 01:17:53;;;;;;;;;;;;;;;14.77;71.58;100762.63;5081560;28;19924;-81
2024/03/19 01:20:45;;;;;;;;;;;;;;;14.72;71.30;100751.91;5087268;28;19916;-81
2024/03/19 01:23:36;;;;;;;;;;;;;;;14.62;71.78;100746.88;5095887;28;20312;-81
2024/03/19 01:26:28;;;;;;;;;;;;;;;14.60;71.80;100749.16;5085977;28;19924;-83
2024/03/19 01:29:20;;;;;;;;;;;;;;;14.57;71.25;100749.84;5086744;28;19920;-83
2024/03/19 01:32:12;;;;;;;;;;;;;;;14.52;71.00;100748.13;5101748;28;20397;-83
2024/03/19 01:35:04;;;;;;;;;;;;;;;14.53;71.18;100742.31;5095268;28;19917;-83
2024/03/19 01:37:54;;;;;;;;;;;;;;;14.50;70.02;100742.19;5086570;28;19916;-83
2024/03/19 01:40:47;;;;;;;;;;;;;;;14.44;70.10;100741.63;5100758;28;19916;-82
2024/03/19 01:43:40;;;;;;;;;;;;;;;14.45;70.19;100745.16;5085959;28;19920;-82
2024/03/19 01:46:32;;;;;;;;;;;;;;;14.43;69.76;100737.28;5101627;28;19916;-83
2024/03/19 01:49:24;;;;;;;;;;;;;;;14.30;68.97;100738.38;5094533;28;19920;-83
2024/03/19 01:52:16;;;;;;;;;;;;;;;14.26;68.08;100744.88;5080508;28;19916;-82
2024/03/19 01:55:08;;;;;;;;;;;;;;;14.12;67.28;100743.22;5080946;28;19924;-82
2024/03/19 01:57:59;;;;;;;;;;;;;;;13.97;68.96;100740.31;5100779;28;19916;-83
2024/03/19 02:00:51;;;;;;;;;;;;;;;13.80;68.69;100732.31;5094602;28;19916;-83
2024/03/19 02:03:43;;;;;;;;;;;;;;;13.53;69.06;100734.47;5099997;28;19916;-83
2024/03/19 02:06:33;;;;;;;;;;;;;;;13.40;69.49;100735.56;5074215;28;20393;-83
2024/03/19 02:09:24;;;;;;;;;;;;;;;13.38;69.86;100743.28;5060965;28;19920;-82
2024/03/19 02:12:17;;;;;;;;;;;;;;;13.44;69.73;100736.47;5059557;28;19916;-82
2024/03/19 02:15:09;;;;;;;;;;;;;;;13.34;69.67;100739.63;5061337;28;19920;-83
2024/03/19 02:17:58;;;;;;;;;;;;;;;13.31;69.74;100725.84;5074050;28;19920;-83
2024/03/19 02:20:50;;;;;;;;;;;;;;;13.40;69.70;100730.09;5079939;28;20385;-82
2024/03/19 02:23:40;;;;;;;;;;;;;;;13.54;69.64;100724.34;5096706;28;19916;-83
2024/03/19 02:26:30;;;;;;;;;;;;;;;13.64;69.34;100715.75;5080066;28;19916;-83
2024/03/19 02:29:22;;;;;;;;;;;;;;;13.63;69.28;100717.66;5085820;28;20300;-83
2024/03/19 02:32:14;;;;;;;;;;;;;;;13.46;69.57;100720.53;5094396;28;19916;-82
2024/03/19 02:35:06;;;;;;;;;;;;;;;13.34;70.27;100708.78;5081261;28;19917;-83
2024/03/19 02:37:58;;;;;;;;;;;;;;;13.28;70.60;100716.34;5099634;28;19916;-83
2024/03/19 02:40:47;;;;;;;;;;;;;;;13.22;70.94;100712.22;5092415;28;19916;-83
2024/03/19 02:43:39;;;;;;;;;;;;;;;13.18;71.17;100719.50;5085295;28;19920;-83
2024/03/19 02:46:31;;;;;;;;;;;;;;;13.24;71.15;100718.97;5085406;28;20435;-83
2024/03/19 02:49:23;;;;;;;;;;;;;;;13.37;71.14;100716.28;5093715;28;20296;-82
2024/03/19 02:52:16;;;;;;;;;;;;;;;13.54;70.94;100713.41;5079734;28;19916;-82
2024/03/19 02:55:07;;;;;;;;;;;;;;;13.56;70.16;100705.69;5094856;28;19916;-81
2024/03/19 02:57:59;;;;;;;;;;;;;;;13.47;70.08;100713.16;5085079;28;19916;-81
2024/03/19 03:00:51;;;;;;;;;;;;;;;13.38;70.17;100710.50;5091782;28;19916;-80
2024/03/19 03:03:43;;;;;;;;;;;;;;;13.39;69.57;100717.56;5073879;28;19916;-80
2024/03/19 03:06:35;;;;;;;;;;;;;;;13.43;69.41;100713.03;5084096;28;19920;-80
2024/03/19 03:09:25;;;;;;;;;;;;;;;13.38;69.63;100713.22;5081128;28;19920;-81
2024/03/19 03:12:17;;;;;;;;;;;;;;;13.40;69.68;100712.91;5059707;28;20289;-80
2024/03/19 03:15:08;;;;;;;;;;;;;;;13.46;69.40;100717.03;5081006;28;19920;-81
2024/03/19 03:17:58;;;;;;;;;;;;;;;13.51;68.95;100719.56;5095291;28;19920;-82
2024/03/19 03:20:50;;;;;;;;;;;;;;;13.53;69.14;100722.75;5089183;28;19916;-82
2024/03/19 03:23:42;;;;;;;;;;;;;;;13.47;69.72;100726.81;5093312;28;19916;-82
2024/03/19 03:26:33;;;;;;;;;;;;;;;13.47;69.82;100730.34;5098591;28;20292;-83
2024/03/19 03:29:25;;;;;;;;;;;;;;;13.51;69.22;100727.75;5078291;28;19920;-83
2024/03/19 03:32:17;;;;;;;;;;;;;;;13.48;69.21;100731.94;5085684;28;19916;-81
2024/03/19 03:35:07;;;;;;;;;;;;;;;13.56;68.87;100728.31;5080662;28;20392;-81
2024/03/19 03:37:59;;;;;;;;;;;;;;;13.61;68.84;100733.59;5093391;28;19924;-82
2024/03/19 03:40:51;;;;;;;;;;;;;;;13.45;69.22;100731.81;5084199;28;19920;-83
2024/03/19 03:43:40;;;;;;;;;;;;;;;13.39;69.59;100738.63;5093217;28;20376;-80
2024/03/19 03:46:32;;;;;;;;;;;;;;;13.46;69.95;100738.88;5093529;28;19916;-81
2024/03/19 03:49:17;;;;;;;;;;;;;;;13.46;70.61;100738.88;5094672;28;19919;-81
2024/03/19 03:52:09;;;;;;;;;;;;;;;13.54;70.53;100746.22;5097966;28;20312;-81
2024/03/19 03:55:00;;;;;;;;;;;;;;;13.34;70.51;100727.88;5115296;28;19915;-80
2024/03/19 03:57:52;;;;;;;;;;;;;;;13.43;71.43;100745.81;5119773;28;19920;-82
2024/03/19 04:00:39;;;;;;;;;;;;;;;13.54;71.63;100749.75;5112026;28;19916;-81
2024/03/19 04:03:31;;;;;;;;;;;;;;;13.65;71.35;100753.66;5093622;28;20289;-79
2024/03/19 04:06:20;;;;;;;;;;;;;;;13.75;71.22;100747.00;5081588;28;19916;-81
2024/03/19 04:09:12;;;;;;;;;;;;;;;13.69;71.33;100754.59;5088576;28;19920;-82
2024/03/19 04:12:02;;;;;;;;;;;;;;;13.69;71.64;100762.78;5097187;28;19916;-83
2024/03/19 04:14:54;;;;;;;;;;;;;;;13.61;72.30;100763.66;5084847;28;19945;-80
2024/03/19 04:17:43;;;;;;;;;;;;;;;13.59;72.77;100762.41;5077122;28;19916;-81
2024/03/19 04:20:35;;;;;;;;;;;;;;;13.58;72.90;100769.78;5071962;28;19916;-80
2024/03/19 04:23:28;;;;;;;;;;;;;;;13.66;72.93;100762.66;5088425;28;19915;-82
2024/03/19 04:26:20;;;;;;;;;;;;;;;13.78;72.68;100770.91;5102777;28;19920;-82
2024/03/19 04:29:14;;;;;;;;;;;;;;;13.89;72.16;100763.09;5087830;28;19920;-81
2024/03/19 04:32:04;;;;;;;;;;;;;;;13.84;72.43;100777.78;5088117;28;19916;-82
2024/03/19 04:34:56;;;;;;;;;;;;;;;13.87;72.46;100777.09;5096805;28;19916;-82
2024/03/19 04:37:48;;;;;;;;;;;;;;;13.96;72.17;100779.75;5082182;28;19916;-83
2024/03/19 04:40:40;;;;;;;;;;;;;;;14.05;71.99;100783.22;5075932;28;19921;-81
2024/03/19 04:43:32;;;;;;;;;;;;;;;14.10;71.92;100788.47;5084001;28;19916;-83
2024/03/19 04:46:21;;;;;;;;;;;;;;;14.13;71.66;100796.78;5087947;28;19916;-81
2024/03/19 04:49:13;;;;;;;;;;;;;;;13.93;72.09;100794.09;5099365;28;19920;-82
2024/03/19 04:52:06;;;;;;;;;;;;;;;13.88;72.42;100792.38;5082231;28;19916;-81
2024/03/19 04:54:58;;;;;;;;;;;;;;;13.92;72.44;100795.22;5098609;28;20336;-83
2024/03/19 04:57:45;;;;;;;;;;;;;;;13.86;72.58;100796.56;5085310;28;19920;-83
2024/03/19 05:00:31;;;;;;;;;;;;;;;13.89;72.79;100804.91;5087321;28;19916;-82
2024/03/19 05:03:21;;;;;;;;;;;;;;;13.99;72.62;100807.22;5087945;28;19916;-81
2024/03/19 05:06:13;;;;;;;;;;;;;;;13.93;72.79;100803.09;5095818;28;20392;-81
2024/03/19 05:09:13;;;;;;;;;;;;;;;13.84;73.04;100807.03;5096060;28;19920;-80
2024/03/19 05:12:03;;;;;;;;;;;;;;;13.90;73.35;100803.78;5087978;28;20396;-81
2024/03/19 05:14:56;;;;;;;;;;;;;;;13.89;73.73;100813.09;5089458;28;19916;-81
2024/03/19 05:17:48;;;;;;;;;;;;;;;13.95;74.01;100816.44;5100173;28;19923;-80
2024/03/19 05:20:39;;;;;;;;;;;;;;;14.06;73.91;100825.81;5103112;28;20395;-81
2024/03/19 05:23:31;;;;;;;;;;;;;;;14.11;73.60;100833.81;5107947;28;19920;-83
2024/03/19 05:26:21;;;;;;;;;;;;;;;14.17;73.41;100835.19;5098206;28;19920;-81
2024/03/19 05:29:13;;;;;;;;;;;;;;;13.96;73.71;100834.44;5109650;28;19920;-81
2024/03/19 05:32:05;;;;;;;;;;;;;;;14.07;73.30;100836.41;5100923;28;19916;-80
2024/03/19 05:34:54;;;;;;;;;;;;;;;14.15;72.86;100834.75;5102132;28;19916;-81
2024/03/19 05:37:46;;;;;;;;;;;;;;;14.13;72.18;100835.06;5123585;28;19915;-82
2024/03/19 05:40:38;;;;;;;;;;;;;;;14.13;72.09;100834.28;5121687;28;19915;-82
2024/03/19 05:43:31;;;;;;;;;;;;;;;14.17;71.67;100839.88;5086263;28;19920;-82
2024/03/19 05:46:22;;;;;;;;;;;;;;;14.10;71.13;100845.91;5094945;28;19920;-80
2024/03/19 05:49:14;;;;;;;;;;;;;;;14.06;71.44;100847.69;5085568;28;20297;-80
2024/03/19 05:52:06;;;;;;;;;;;;;;;14.01;71.25;100856.13;5094445;28;19916;-82
2024/03/19 05:54:58;;;;;;;;;;;;;;;13.98;71.16;100856.75;5090920;28;19917;-82
2024/03/19 05:57:50;;;;;;;;;;;;;;;13.91;71.29;100859.25;5097231;28;19924;-82
2024/03/19 06:00:42;;;;;;;;;;;;;;;13.89;71.39;100861.50;5100300;28;19916;-82
2024/03/19 06:03:34;;;;;;;;;;;;;;;13.91;71.75;100868.25;5113174;28;20396;-84
2024/03/19 06:06:26;;;;;;;;;;;;;;;13.93;71.74;100873.38;5084582;28;19920;-82
2024/03/19 06:09:18;;;;;;;;;;;;;;;13.99;71.52;100882.97;5119484;28;19920;-85
2024/03/19 06:12:10;;;;;;;;;;;;;;;13.85;71.24;100885.97;5114157;28;19920;-84
2024/03/19 06:15:02;;;;;;;;;;;;;;;13.88;71.55;100888.03;5102007;28;19915;-83
2024/03/19 06:17:54;;;;;;;;;;;;;;;14.02;71.40;100893.22;5105583;28;19916;-83
2024/03/19 06:20:45;;;;;;;;;;;;;;;14.03;71.41;100894.84;5104685;28;19916;-84
2024/03/19 06:23:38;;;;;;;;;;;;;;;13.99;71.25;100900.19;5115801;28;19916;-82
2024/03/19 06:26:29;;;;;;;;;;;;;;;14.03;71.14;100905.78;5113940;28;19919;-82
2024/03/19 06:29:21;;;;;;;;;;;;;;;13.97;71.07;100902.44;5100467;28;20203;-87
2024/03/19 06:32:13;;;;;;;;;;;;;;;13.93;71.31;100908.91;5096574;28;19935;-86
2024/03/19 06:35:05;;;;;;;;;;;;;;;13.97;71.46;100909.84;5103324;28;19916;-85
2024/03/19 06:37:55;;;;;;;;;;;;;;;14.02;71.27;100915.09;5105242;28;20306;-85
2024/03/19 06:40:47;;;;;;;;;;;;;;;13.95;71.46;100920.31;5113443;28;19916;-85
2024/03/19 06:43:39;;;;;;;;;;;;;;;13.90;71.67;100923.25;5083958;28;19916;-86
2024/03/19 06:46:31;;;;;;;;;;;;;;;13.88;71.82;100929.03;5098460;28;19915;-86
2024/03/19 06:49:23;;;;;;;;;;;;;;;13.95;71.72;100931.25;5112636;28;19927;-87
2024/03/19 06:52:15;;;;;;;;;;;;;;;13.93;71.68;100936.25;5099182;28;19915;-85
2024/03/19 06:55:07;;;;;;;;;;;;;;;13.89;71.81;100936.13;5101050;28;19916;-85
2024/03/19 06:57:59;;;;;;;;;;;;;;;13.89;72.07;100944.31;5120575;28;19923;-85
2024/03/19 07:00:51;;;;;;;;;;;;;;;13.90;71.82;100947.84;5104649;28;19916;-85
2024/03/19 07:03:39;;;;;;;;;;;;;;;13.89;72.20;100940.78;5084166;28;19916;-85
2024/03/19 07:06:31;;;;;;;;;;;;;;;13.90;71.72;100945.94;5064327;28;19922;-85
2024/03/19 07:09:24;;;;;;;;;;;;;;;13.86;71.86;100949.66;5063557;28;19920;-85
2024/03/19 07:12:16;;;;;;;;;;;;;;;13.90;71.74;100956.06;5077563;28;20300;-85
2024/03/19 07:15:09;;;;;;;;;;;;;;;13.87;71.71;100956.69;5113315;28;19916;-86
2024/03/19 07:18:01;;;;;;;;;;;;;;;13.86;71.50;100960.59;5098187;28;19916;-86
2024/03/19 07:20:55;;;;;;;;;;;;;;;13.91;71.91;100958.47;5111488;28;20386;-85
2024/03/19 07:23:47;;;;;;;;;;;;;;;13.95;71.80;100953.13;5111662;28;19916;-85
2024/03/19 07:26:36;;;;;;;;;;;;;;;14.04;71.70;100956.59;5111351;28;19920;-86
2024/03/19 07:29:28;;;;;;;;;;;;;;;14.02;71.80;100967.88;5116326;28;19923;-86
2024/03/19 07:32:20;;;;;;;;;;;;;;;14.14;71.45;100964.41;5112918;28;19920;-85
2024/03/19 07:35:12;;;;;;;;;;;;;;;14.12;71.57;100967.47;5112923;28;19916;-85
2024/03/19 07:38:04;;;;;;;;;;;;;;;14.12;71.68;100972.94;5114107;28;19920;-87
2024/03/19 07:40:56;;;;;;;;;;;;;;;14.04;71.48;100973.00;5113543;28;19916;-85
2024/03/19 07:43:48;;;;;;;;;;;;;;;14.08;71.30;100982.16;5105336;28;19916;-86
2024/03/19 07:46:40;;;;;;;;;;;;;;;14.06;71.63;100979.75;5118008;28;19920;-85
2024/03/19 07:49:32;;;;;;;;;;;;;;;14.12;71.90;100983.88;5115019;28;19920;-86
2024/03/19 07:52:24;;;;;;;;;;;;;;;14.22;71.72;100979.94;5115182;28;19916;-85
2024/03/19 07:55:16;;;;;;;;;;;;;;;14.24;71.64;100982.34;5116734;28;19916;-85
2024/03/19 07:58:08;;;;;;;;;;;;;;;14.36;71.56;100979.72;5100105;28;20403;-86
2024/03/19 08:01:00;;;;;;;;;;;;;;;14.36;71.27;100985.19;5115035;28;20320;-85
2024/03/19 08:03:47;;;;;;;;;;;;;;;14.26;70.99;100983.66;5116180;28;19916;-86
2024/03/19 08:06:39;;;;;;;;;;;;;;;14.33;71.26;100989.38;5119763;28;20297;-86
2024/03/19 08:09:31;;;;;;;;;;;;;;;14.43;71.09;100980.78;5102593;28;19919;-85
2024/03/19 08:12:23;;;;;;;;;;;;;;;14.42;71.03;100989.34;5115455;28;19919;-86
2024/03/19 08:15:15;;;;;;;;;;;;;;;14.43;70.80;100991.72;5098432;28;19915;-86
2024/03/19 08:18:08;;;;;;;;;;;;;;;14.51;70.68;100990.88;5116228;28;19916;-85
2024/03/19 08:21:00;;;;;;;;;;;;;;;14.54;70.35;100986.66;5099571;28;19916;-86
2024/03/19 08:23:52;;;;;;;;;;;;;;;14.57;70.05;100994.22;5117737;28;19915;-86
2024/03/19 08:26:44;;;;;;;;;;;;;;;14.57;70.26;100994.22;5115712;28;19919;-85
2024/03/19 08:29:37;;;;;;;;;;;;;;;14.61;70.19;100997.06;5119059;28;19916;-84
2024/03/19 08:32:29;;;;;;;;;;;;;;;14.73;69.91;100999.88;5117129;28;19919;-85
2024/03/19 08:35:21;;;;;;;;;;;;;;;14.65;69.42;100998.81;5080289;28;19920;-85
2024/03/19 08:38:10;;;;;;;;;;;;;;;14.68;69.16;101009.06;5083563;28;19920;-83
2024/03/19 08:41:03;;;;;;;;;;;;;;;14.76;68.93;101010.16;5086529;28;19915;-84
2024/03/19 08:43:55;;;;;;;;;;;;;;;14.90;68.72;101016.94;5106736;28;20296;-84
2024/03/19 08:46:48;;;;;;;;;;;;;;;14.86;68.57;101017.94;5118185;28;19916;-83
2024/03/19 08:49:37;;;;;;;;;;;;;;;14.82;68.31;101019.75;5110233;28;19920;-86
2024/03/19 08:52:26;;;;;;;;;;;;;;;14.93;68.09;101010.00;5089628;28;19916;-83
2024/03/19 08:55:18;;;;;;;;;;;;;;;14.90;68.37;101018.88;5101997;28;19915;-82
2024/03/19 08:58:12;;;;;;;;;;;;;;;14.96;68.26;101026.53;5116054;28;19920;-84
2024/03/19 09:01:01;;;;;;;;;;;;;;;14.97;67.92;101017.19;5118483;28;19916;-83
2024/03/19 09:03:51;;;;;;;;;;;;;;;15.09;67.39;101012.88;5114867;28;19920;-83
2024/03/19 09:06:42;;;;;;;;;;;;;;;15.14;67.28;101020.88;5115362;28;19916;-83
2024/03/19 09:09:34;;;;;;;;;;;;;;;15.17;67.23;101023.75;5117710;28;19916;-83
2024/03/19 09:12:24;;;;;;;;;;;;;;;15.25;67.05;101027.53;5112416;28;19915;-83
2024/03/19 09:15:16;;;;;;;;;;;;;;;15.25;67.36;101028.34;5096214;28;19920;-84
2024/03/19 09:18:08;;;;;;;;;;;;;;;15.37;67.23;101027.56;5096807;28;19928;-86
2024/03/19 09:20:59;;;;;;;;;;;;;;;15.47;66.83;101018.91;5076518;28;19916;-84
2024/03/19 09:23:51;;;;;;;;;;;;;;;15.28;67.15;101021.38;5083236;28;19920;-85
2024/03/19 09:26:43;;;;;;;;;;;;;;;15.29;67.63;101018.28;5084997;28;19920;-85
2024/03/19 09:29:33;;;;;;;;;;;;;;;15.35;67.51;101019.69;5083245;28;19915;-82
2024/03/19 09:32:24;;;;;;;;;;;;;;;15.51;67.50;101019.84;5096044;28;19916;-83
2024/03/19 09:35:17;;;;;;;;;;;;;;;15.67;66.70;101017.25;5081549;28;19916;-84
2024/03/19 09:38:06;;;;;;;;;;;;;;;15.87;66.17;101019.06;5094909;28;19920;-84
2024/03/19 09:41:01;;;;;;;;;;;;;;;15.94;66.01;101019.31;5092159;28;19916;-82
2024/03/19 09:43:51;;;;;;;;;;;;;;;15.99;65.14;101021.81;5098452;28;19916;-84
2024/03/19 09:46:41;;;;;;;;;;;;;;;15.84;64.85;101033.47;5080637;28;19916;-84
2024/03/19 09:49:32;;;;;;;;;;;;;;;16.02;64.86;101028.56;5095394;28;19916;-85
2024/03/19 09:52:24;;;;;;;;;;;;;;;16.01;64.49;101037.91;5085133;28;19920;-84
2024/03/19 09:55:16;;;;;;;;;;;;;;;16.08;64.22;101030.72;5117691;28;19924;-85
2024/03/19 09:58:09;;;;;;;;;;;;;;;16.15;65.78;101028.19;5090613;28;19916;-85
2024/03/19 10:01:02;;;;;;;;;;;;;;;16.21;64.98;101023.25;5088671;28;20412;-82
2024/03/19 10:03:54;;;;;;;;;;;;;;;16.41;64.21;101025.06;5084162;28;20301;-82
2024/03/19 10:06:44;;;;;;;;;;;;;;;16.56;63.97;101032.56;5077539;28;19917;-81
2024/03/19 10:09:36;;;;;;;;;;;;;;;16.65;63.86;101036.03;5083329;28;19917;-83
2024/03/19 10:12:33;;;;;;;;;;;;;;;16.78;63.67;101027.72;5076400;28;19916;-81
2024/03/19 10:15:25;;;;;;;;;;;;;;;16.98;62.87;101029.47;5071166;28;19920;-81
2024/03/19 10:18:14;;;;;;;;;;;;;;;16.95;61.96;101031.00;5081147;28;19924;-80
2024/03/19 10:21:05;;;;;;;;;;;;;;;16.91;61.69;101021.84;5093184;28;19916;-79
2024/03/19 10:23:56;;;;;;;;;;;;;;;17.06;62.10;101026.59;5092297;28;19938;-79
2024/03/19 10:26:46;;;;;;;;;;;;;;;16.96;62.02;101029.03;5091608;28;19916;-79
2024/03/19 10:29:45;;;;;;;;;;;;;;;16.89;62.79;101021.41;5067583;28;20389;-79
2024/03/19 10:32:37;;;;;;;;;;;;;;;16.67;63.35;101030.16;5085994;28;19920;-81
2024/03/19 10:35:24;;;;;;;;;;;;;;;16.87;62.90;101020.94;5092147;28;19919;-80
2024/03/19 10:38:19;;;;;;;;;;;;;;;17.01;62.67;101026.03;5077275;28;19924;-79
2024/03/19 10:41:11;;;;;;;;;;;;;;;16.93;62.20;101022.28;5089826;28;19920;-79
2024/03/19 10:44:07;;;;;;;;;;;;;;;17.04;62.08;101025.31;5089490;28;21113;-79
2024/03/19 10:46:56;;;;;;;;;;;;;;;16.88;62.71;101019.00;5083754;28;20397;-81
2024/03/19 10:49:48;;;;;;;;;;;;;;;17.16;63.13;101021.72;5090030;28;20324;-79
2024/03/19 10:52:41;;;;;;;;;;;;;;;17.21;61.12;101021.47;5077110;28;19920;-81
2024/03/19 10:55:38;;;;;;;;;;;;;;;17.14;61.93;101018.53;5072196;28;20296;-81
2024/03/19 10:58:30;;;;;;;;;;;;;;;17.21;61.84;101013.22;5089147;28;19916;-80
2024/03/19 11:01:22;;;;;;;;;;;;;;;17.31;61.39;101009.97;5090526;28;20316;-82
2024/03/19 11:04:14;;;;;;;;;;;;;;;17.24;61.59;101012.50;5080339;28;19920;-82
2024/03/19 11:07:07;;;;;;;;;;;;;;;17.55;61.32;101018.03;5078538;28;20340;-80
2024/03/19 11:09:59;;;;;;;;;;;;;;;17.56;60.69;101016.09;5081777;28;19920;-80
2024/03/19 11:12:57;;;;;;;;;;;;;;;17.79;59.96;101006.88;5080200;28;19920;-81
2024/03/19 11:15:46;;;;;;;;;;;;;;;17.74;60.17;101004.38;5071316;28;19916;-81
2024/03/19 11:18:44;;;;;;;;;;;;;;;17.82;59.84;101008.94;5087114;28;19916;-79
2024/03/19 11:21:36;;;;;;;;;;;;;;;17.93;60.38;101007.19;5071548;28;19916;-82
2024/03/19 11:24:35;;;;;;;;;;;;;;;17.91;60.10;101000.47;5073341;28;19920;-82
2024/03/19 11:27:25;;;;;;;;;;;;;;;17.82;59.20;101000.66;5079870;28;20397;-81
2024/03/19 11:30:17;;;;;;;;;;;;;;;17.97;59.05;101001.81;5076650;28;19924;-81
2024/03/19 11:33:05;;;;;;;;;;;;;;;17.92;59.28;100997.38;5089761;28;19916;-83
2024/03/19 11:35:57;;;;;;;;;;;;;;;17.95;59.05;100990.34;5091550;28;20557;-82
2024/03/19 11:38:49;;;;;;;;;;;;;;;18.03;58.92;100994.06;5076617;28;19924;-81
2024/03/19 11:41:41;;;;;;;;;;;;;;;18.28;58.40;100998.16;5091599;28;20355;-82
2024/03/19 11:44:31;;;;;;;;;;;;;;;18.15;57.82;100988.44;5078117;28;19917;-81
2024/03/19 11:47:23;;;;;;;;;;;;;;;17.97;58.63;100998.25;5081938;28;20324;-81
2024/03/19 11:50:18;;;;;;;;;;;;;;;18.20;58.12;100988.94;5088668;28;19924;-79
2024/03/19 11:53:11;;;;;;;;;;;;;;;18.21;58.57;100985.03;5084977;28;20312;-81
2024/03/19 11:56:04;;;;;;;;;;;;;;;18.34;57.04;100978.22;5088458;28;20488;-81
2024/03/19 11:58:56;;;;;;;;;;;;;;;18.42;57.94;100975.66;5090807;28;20397;-82
2024/03/19 12:01:48;;;;;;;;;;;;;;;18.47;57.23;100970.66;5086421;28;19920;-81
2024/03/19 12:04:40;;;;;;;;;;;;;;;18.33;57.43;100968.41;5079848;28;19920;-82
2024/03/19 12:07:33;;;;;;;;;;;;;;;18.62;57.16;100972.56;5091934;28;19916;-82
2024/03/19 12:10:25;;;;;;;;;;;;;;;18.43;57.32;100964.28;5080949;28;19939;-81
2024/03/19 12:13:15;;;;;;;;;;;;;;;18.66;56.97;100969.88;5078795;28;19917;-82
2024/03/19 12:16:07;;;;;;;;;;;;;;;18.63;57.10;100970.59;5085873;28;19916;-81
2024/03/19 12:18:59;;;;;;;;;;;;;;;18.57;56.42;100963.78;5087695;28;19920;-81
2024/03/19 12:21:51;;;;;;;;;;;;;;;18.71;57.09;100966.81;5080719;28;20304;-82
2024/03/19 12:24:44;;;;;;;;;;;;;;;18.64;57.31;100953.69;5078864;28;19916;-81
2024/03/19 12:27:34;;;;;;;;;;;;;;;18.84;55.57;100953.69;5075603;28;20388;-81
2024/03/19 12:30:26;;;;;;;;;;;;;;;19.15;54.73;100956.22;5080406;28;19924;-81
2024/03/19 12:33:37;;;;;;;;;;;;;;;19.06;56.01;100955.66;5100350;28;19916;-81
2024/03/19 12:36:32;;;;;;;;;;;;;;;19.06;55.43;100947.41;5095907;28;19920;-82
2024/03/19 12:39:22;;;;;;;;;;;;;;;18.91;55.41;100951.06;5091159;28;19917;-80
2024/03/19 12:42:17;;;;;;;;;;;;;;;18.87;55.56;100944.69;5081182;28;19916;-81
2024/03/19 12:45:09;;;;;;;;;;;;;;;19.04;54.75;100944.22;5081370;28;20219;-81
2024/03/19 12:48:01;;;;;;;;;;;;;;;18.86;54.89;100932.88;5094040;28;19916;-82
2024/03/19 12:50:53;;;;;;;;;;;;;;;19.08;54.86;100942.31;5081255;28;19920;-81
2024/03/19 12:53:44;;;;;;;;;;;;;;;19.21;54.03;100935.44;5095532;28;19916;-81
2024/03/19 12:56:36;;;;;;;;;;;;;;;19.20;54.73;100933.84;5076796;28;19916;-80
2024/03/19 12:59:26;;;;;;;;;;;;;;;19.30;53.84;100924.97;5102445;28;19916;-81
2024/03/19 13:02:16;;;;;;;;;;;;;;;19.32;54.62;100932.88;5094253;28;19916;-81
2024/03/19 13:05:06;;;;;;;;;;;;;;;19.31;54.33;100925.75;5081399;28;19924;-81
2024/03/19 13:07:55;;;;;;;;;;;;;;;19.16;54.54;100933.81;5080907;28;19919;-82
2024/03/19 13:10:47;;;;;;;;;;;;;;;19.24;54.41;100940.25;5092935;28;19921;-81
2024/03/19 13:13:39;;;;;;;;;;;;;;;19.20;54.43;100931.09;5082200;28;19916;-81
2024/03/19 13:16:29;;;;;;;;;;;;;;;19.25;53.86;100930.78;5088238;28;19924;-82
2024/03/19 13:19:21;;;;;;;;;;;;;;;19.21;54.74;100925.22;5084061;28;20369;-81
2024/03/19 13:22:11;;;;;;;;;;;;;;;19.33;54.54;100931.72;5103054;28;19916;-81
2024/03/19 13:25:00;;;;;;;;;;;;;;;19.28;54.88;100930.06;5091914;28;19920;-81
2024/03/19 13:27:50;;;;;;;;;;;;;;;19.32;53.91;100921.84;5086832;28;20615;-81
2024/03/19 13:30:39;;;;;;;;;;;;;;;19.23;53.20;100922.09;5096385;28;20219;-82
2024/03/19 13:33:31;;;;;;;;;;;;;;;19.34;54.00;100925.84;5086099;28;19920;-81
2024/03/19 13:36:20;;;;;;;;;;;;;;;19.54;53.43;100921.84;5092944;28;20305;-81
2024/03/19 13:39:13;;;;;;;;;;;;;;;19.22;52.97;100928.78;5092902;28;19920;-82
2024/03/19 13:42:05;;;;;;;;;;;;;;;19.53;52.60;100916.69;5105304;28;20297;-81
2024/03/19 13:44:53;;;;;;;;;;;;;;;19.58;52.08;100922.69;5110805;28;19919;-81
2024/03/19 13:47:45;;;;;;;;;;;;;;;19.70;52.84;100916.19;5099421;28;19916;-81
2024/03/19 13:50:37;;;;;;;;;;;;;;;19.45;52.65;100923.28;5112647;28;19924;-81
2024/03/19 13:53:29;;;;;;;;;;;;;;;19.47;53.05;100924.50;5114658;28;19916;-81
2024/03/19 13:56:21;;;;;;;;;;;;;;;19.72;52.72;100918.56;5112845;28;19916;-80
2024/03/19 13:59:10;;;;;;;;;;;;;;;19.48;54.48;100917.81;5101178;28;19920;-82
2024/03/19 14:02:02;;;;;;;;;;;;;;;19.60;53.93;100912.09;5092620;28;19916;-81
2024/03/19 14:04:55;;;;;;;;;;;;;;;19.67;53.03;100910.59;5114937;28;19920;-82
2024/03/19 14:07:44;;;;;;;;;;;;;;;19.46;54.09;100911.06;5113007;28;19916;-82
2024/03/19 14:10:36;;;;;;;;;;;;;;;19.64;53.66;100906.63;5098128;28;19924;-81
2024/03/19 14:13:25;;;;;;;;;;;;;;;19.37;54.40;100910.50;5116807;28;19920;-81
2024/03/19 14:16:17;;;;;;;;;;;;;;;19.45;55.09;100917.78;5100146;28;19916;-81
2024/03/19 14:19:12;;;;;;;;;;;;;;;19.34;54.74;100912.06;5112140;28;19920;-82
2024/03/19 14:22:04;;;;;;;;;;;;;;;19.38;54.74;100912.91;5084594;28;19920;-82
2024/03/19 14:24:56;;;;;;;;;;;;;;;19.34;54.71;100917.56;5093226;28;19916;-81
2024/03/19 14:27:48;;;;;;;;;;;;;;;19.45;54.84;100918.56;5096813;28;19920;-81
2024/03/19 14:30:40;;;;;;;;;;;;;;;19.46;54.62;100919.34;5091942;28;19924;-81
2024/03/19 14:33:30;;;;;;;;;;;;;;;19.41;55.36;100925.13;5093996;28;19919;-81
2024/03/19 14:36:20;;;;;;;;;;;;;;;19.15;56.61;100921.16;5096772;28;19920;-81
2024/03/19 14:39:10;;;;;;;;;;;;;;;19.23;55.97;100928.41;5080778;28;20344;-82